Time;durP1;ratioP1;P1;durP2;ratioP2;P2;SDS_P1;SDS_P2;PMS_P1;PMS_P2;Temp;Humidity;BMP_temperature;BMP_pressure;BME280_temperature;BME280_humidity;BME280_pressure;Samples;Min_cycle;Max_cycle;Signal;HPM_P1;HPM_P2
2021/10/27 00:02:01;;;;;;;10.50;4.30;;;11.80;99.90;;;;;;12311447;28;20054;-86
2021/10/27 00:08:04;;;;;;;12.07;5.03;;;11.80;99.90;;;;;;12311916;28;20051;-85
2021/10/27 00:14:06;;;;;;;10.63;4.75;;;11.80;99.90;;;;;;12314037;28;20043;-85
2021/10/27 00:20:10;;;;;;;9.38;4.78;;;11.80;99.90;;;;;;12312785;28;20109;-86
2021/10/27 00:26:12;;;;;;;15.90;6.00;;;11.80;99.90;;;;;;12316021;28;20130;-87
2021/10/27 00:32:14;;;;;;;8.65;5.25;;;11.90;99.90;;;;;;12308140;28;20055;-85
2021/10/27 00:38:16;;;;;;;16.20;7.40;;;11.90;99.90;;;;;;12311997;28;20309;-85
2021/10/27 00:44:23;;;;;;;13.32;6.72;;;11.90;99.90;;;;;;12311891;28;20117;-86
2021/10/27 00:50:25;;;;;;;17.30;7.03;;;11.90;99.90;;;;;;12317635;28;20635;-86
2021/10/27 00:56:28;;;;;;;17.25;8.75;;;11.80;99.90;;;;;;12303139;28;20058;-86
2021/10/27 01:02:30;;;;;;;17.30;9.30;;;11.90;99.90;;;;;;12308406;28;20088;-85
2021/10/27 01:08:33;;;;;;;14.40;9.18;;;11.80;99.90;;;;;;12336923;28;20095;-86
2021/10/27 01:14:39;;;;;;;18.65;10.43;;;11.90;99.90;;;;;;12297218;28;21044;-87
2021/10/27 01:20:41;;;;;;;18.40;11.45;;;11.90;99.90;;;;;;12300699;28;20390;-86
2021/10/27 01:26:43;;;;;;;19.27;11.68;;;11.90;99.90;;;;;;12292580;28;20501;-87
2021/10/27 01:32:46;;;;;;;19.48;10.63;;;11.90;99.90;;;;;;12304451;28;20065;-87
2021/10/27 01:38:48;;;;;;;23.13;11.82;;;11.90;99.90;;;;;;12322107;28;20455;-87
2021/10/27 01:44:50;;;;;;;19.98;11.65;;;12.00;99.90;;;;;;12294819;28;20082;-86
2021/10/27 01:50:52;;;;;;;20.40;12.68;;;12.00;99.90;;;;;;12304390;28;20062;-85
2021/10/27 01:56:54;;;;;;;23.80;13.75;;;11.90;99.90;;;;;;12307016;28;20046;-86
2021/10/27 02:02:56;;;;;;;23.80;13.43;;;11.80;99.90;;;;;;12318968;28;20684;-86
2021/10/27 02:08:57;;;;;;;24.00;13.32;;;11.90;99.90;;;;;;12338154;28;20786;-86
2021/10/27 02:15:00;;;;;;;24.88;13.90;;;11.90;99.90;;;;;;12299426;28;20054;-87
2021/10/27 02:21:02;;;;;;;20.02;13.82;;;11.90;99.90;;;;;;12301354;28;20050;-85
2021/10/27 02:27:04;;;;;;;21.13;13.98;;;11.90;99.90;;;;;;12301280;28;20051;-85
2021/10/27 02:33:06;;;;;;;22.70;14.30;;;12.00;99.90;;;;;;12299411;28;20046;-84
2021/10/27 02:39:09;;;;;;;23.25;14.10;;;11.80;99.90;;;;;;12301671;28;20154;-84
2021/10/27 02:45:12;;;;;;;23.27;14.50;;;11.80;99.90;;;;;;12300380;28;20078;-85
2021/10/27 02:51:14;;;;;;;23.98;14.40;;;11.80;99.90;;;;;;12308570;28;20057;-85
2021/10/27 02:57:16;;;;;;;23.00;14.95;;;11.80;99.90;;;;;;12299656;28;20149;-86
2021/10/27 03:03:20;;;;;;;;;;;11.70;99.90;;;;;;12294642;28;20089;-88
2021/10/27 03:09:22;;;;;;;23.92;16.15;;;11.70;99.90;;;;;;12298312;28;19930;-85
2021/10/27 03:15:24;;;;;;;30.00;18.00;;;11.80;99.90;;;;;;12300824;28;20145;-84
2021/10/27 03:21:26;;;;;;;32.60;17.48;;;11.80;99.90;;;;;;12304802;28;20134;-85
2021/10/27 03:27:28;;;;;;;27.95;16.95;;;11.80;99.90;;;;;;12304070;28;20133;-87
2021/10/27 03:33:30;;;;;;;27.15;18.58;;;11.80;99.90;;;;;;12302603;28;20058;-87
2021/10/27 03:39:32;;;;;;;25.10;18.10;;;11.90;99.90;;;;;;12304890;28;20116;-86
2021/10/27 03:45:33;;;;;;;27.27;16.65;;;11.90;99.90;;;;;;12297511;28;20054;-87
2021/10/27 03:51:35;;;;;;;25.60;17.73;;;12.00;99.90;;;;;;12314150;28;20614;-86
2021/10/27 03:57:38;;;;;;;21.83;17.15;;;12.00;99.90;;;;;;12302652;28;20508;-85
2021/10/27 04:03:40;;;;;;;22.40;16.08;;;12.00;99.90;;;;;;12298852;28;20630;-84
2021/10/27 04:09:42;;;;;;;24.13;16.85;;;12.10;99.90;;;;;;12303256;28;20130;-86
2021/10/27 04:15:44;;;;;;;25.85;18.13;;;12.20;99.90;;;;;;12331450;28;20043;-86
2021/10/27 04:21:46;;;;;;;24.10;17.15;;;12.10;99.90;;;;;;12303651;28;20043;-86
2021/10/27 04:27:48;;;;;;;24.90;17.27;;;12.10;99.90;;;;;;12305320;28;20058;-85
2021/10/27 04:33:50;;;;;;;21.08;17.27;;;12.10;99.90;;;;;;12298292;28;20074;-86
2021/10/27 04:39:52;;;;;;;24.67;17.55;;;12.00;99.90;;;;;;12285685;28;20050;-85
2021/10/27 04:45:55;;;;;;;25.02;18.25;;;12.10;99.90;;;;;;12309672;28;20055;-87
2021/10/27 04:51:57;;;;;;;23.65;18.35;;;12.10;99.90;;;;;;12306236;28;20988;-87
2021/10/27 04:57:59;;;;;;;23.98;18.48;;;12.10;99.90;;;;;;12336881;28;20104;-88
2021/10/27 05:04:01;;;;;;;22.30;18.90;;;12.10;99.90;;;;;;12302886;28;20076;-86
2021/10/27 05:10:03;;;;;;;25.20;18.83;;;12.10;99.90;;;;;;12298283;28;20093;-85
2021/10/27 05:16:05;;;;;;;25.10;19.05;;;12.10;99.90;;;;;;12292735;28;21046;-86
2021/10/27 05:22:08;;;;;;;22.58;17.38;;;12.10;99.90;;;;;;12313633;28;21064;-85
2021/10/27 05:28:11;;;;;;;27.08;17.73;;;12.10;99.90;;;;;;12293288;28;20082;-85
2021/10/27 05:34:12;;;;;;;25.67;18.67;;;12.10;99.90;;;;;;12300617;28;20054;-86
2021/10/27 05:40:14;;;;;;;23.55;19.70;;;12.10;99.90;;;;;;12293959;28;20054;-85
2021/10/27 05:46:19;;;;;;;28.02;19.70;;;12.10;99.90;;;;;;12297661;28;20113;-85
2021/10/27 05:58:23;;;;;;;27.13;19.83;;;12.10;99.90;;;;;;12294294;28;20144;-84
2021/10/27 06:04:26;;;;;;;25.52;20.23;;;12.10;99.90;;;;;;12297394;28;20058;-86
2021/10/27 06:10:28;;;;;;;28.80;20.58;;;12.10;99.90;;;;;;12300939;28;20065;-86
2021/10/27 06:16:30;;;;;;;24.30;18.85;;;12.10;99.90;;;;;;12293636;28;20102;-85
2021/10/27 06:22:32;;;;;;;23.50;18.20;;;12.20;99.90;;;;;;12303164;28;20137;-86
2021/10/27 06:28:45;;;;;;;24.58;18.90;;;12.20;99.90;;;;;;12298047;28;20994;-85
2021/10/27 06:34:51;;;;;;;24.88;18.45;;;12.30;99.90;;;;;;12292482;28;20117;-85
2021/10/27 06:47:14;;;;;;;23.45;16.83;;;12.30;99.90;;;;;;12304203;28;20086;-84
2021/10/27 06:53:16;;;;;;;25.92;17.52;;;12.30;99.90;;;;;;12295015;28;20093;-84
2021/10/27 06:59:33;;;;;;;22.00;16.65;;;12.40;99.90;;;;;;12290424;28;21180;-84
2021/10/27 07:18:07;;;;;;;20.95;14.32;;;12.50;99.90;;;;;;12289079;28;20055;-85
2021/10/27 07:24:09;;;;;;;15.90;12.32;;;12.50;99.90;;;;;;12293265;28;20529;-85
2021/10/27 07:30:11;;;;;;;17.05;12.55;;;12.60;99.90;;;;;;12297145;28;20101;-85
2021/10/27 07:42:21;;;;;;;18.10;10.85;;;12.70;99.90;;;;;;12288497;28;20554;-84
2021/10/27 07:48:23;;;;;;;14.15;8.27;;;12.80;99.90;;;;;;12281207;28;20125;-86
2021/10/27 07:54:25;;;;;;;12.10;8.23;;;12.90;99.90;;;;;;12293712;28;20054;-86
2021/10/27 08:00:29;;;;;;;12.68;7.95;;;12.90;99.90;;;;;;12297423;28;20051;-85
2021/10/27 08:06:31;;;;;;;;;;;13.00;99.90;;;;;;12296352;28;20061;-85
2021/10/27 08:12:33;;;;;;;11.43;6.53;;;13.10;99.90;;;;;;12292122;28;19934;-85
2021/10/27 08:18:36;;;;;;;9.50;5.28;;;13.20;99.90;;;;;;12324116;28;20434;-85
2021/10/27 08:24:38;;;;;;;12.10;5.72;;;13.30;99.90;;;;;;12301733;28;20043;-84
2021/10/27 08:31:21;;;;;;;10.88;5.30;;;13.40;99.90;;;;;;12293883;28;20051;-85
2021/10/27 08:37:24;;;;;;;11.05;4.53;;;13.40;99.90;;;;;;12300228;28;20856;-85
2021/10/27 08:43:26;;;;;;;8.07;3.90;;;13.50;99.90;;;;;;12300627;28;20717;-85
2021/10/27 08:49:28;;;;;;;8.93;3.97;;;13.60;99.90;;;;;;12313396;28;20411;-85
2021/10/27 08:55:31;;;;;;;11.45;3.75;;;13.60;99.90;;;;;;12295723;28;20487;-84
2021/10/27 09:01:50;;;;;;;10.13;4.07;;;13.70;99.90;;;;;;12334130;28;20126;-86
2021/10/27 10:05:08;;;;;;;7.18;2.38;;;14.00;99.90;;;;;;12305880;28;21411;-85
2021/10/27 10:11:12;;;;;;;5.60;2.40;;;14.00;99.90;;;;;;12330739;28;20077;-85
2021/10/27 10:17:13;;;;;;;6.53;1.90;;;14.00;99.90;;;;;;12297782;28;20055;-86
2021/10/27 10:23:16;;;;;;;7.63;2.00;;;14.10;99.90;;;;;;12305649;28;20688;-84
2021/10/27 10:29:45;;;;;;;5.63;2.05;;;14.20;99.90;;;;;;12298302;28;20974;-86
2021/10/27 10:35:59;;;;;;;5.70;2.13;;;14.30;99.90;;;;;;12300201;28;20046;-86
2021/10/27 10:42:45;;;;;;;5.07;1.92;;;14.40;99.90;;;;;;12307759;28;20043;-86
2021/10/27 11:01:48;;;;;;;8.10;1.83;;;14.60;99.90;;;;;;12302380;28;20320;-85
2021/10/27 11:51:54;;;;;;;7.30;1.50;;;15.00;99.90;;;;;;12315766;28;20537;-85
2021/10/27 11:57:56;;;;;;;4.33;1.40;;;15.10;99.90;;;;;;12317237;28;20094;-84
2021/10/27 12:03:59;;;;;;;5.00;1.75;;;15.30;99.90;;;;;;12311122;28;20430;-85
2021/10/27 12:10:24;;;;;;;5.20;1.60;;;15.30;99.90;;;;;;12348595;28;20051;-86
2021/10/27 12:22:44;;;;;;;8.55;1.95;;;15.40;99.90;;;;;;12317475;28;20051;-86
2021/10/27 12:28:47;;;;;;;5.22;1.40;;;15.40;99.90;;;;;;12305101;28;20648;-86
2021/10/27 12:34:51;;;;;;;5.28;1.63;;;15.40;99.90;;;;;;12355919;28;21003;-85
2021/10/27 12:40:57;;;;;;;5.07;1.70;;;15.30;99.90;;;;;;12346096;28;20144;-85
2021/10/27 12:47:13;;;;;;;7.28;1.90;;;15.40;99.90;;;;;;12313823;28;21149;-85
2021/10/27 12:53:15;;;;;;;5.65;1.45;;;15.30;99.90;;;;;;12310719;28;20061;-85
2021/10/27 12:59:29;;;;;;;5.70;1.30;;;15.40;99.90;;;;;;12308497;28;21660;-84
2021/10/27 13:05:38;;;;;;;;;;;15.70;99.90;;;;;;12303150;28;20100;-85
2021/10/27 13:30:17;;;;;;;8.70;1.70;;;15.80;99.90;;;;;;12310310;28;20065;-84
2021/10/27 13:36:18;;;;;;;8.50;1.80;;;15.80;99.90;;;;;;12311833;28;20054;-85
2021/10/27 13:42:28;;;;;;;7.20;2.30;;;15.70;99.90;;;;;;12305157;28;20508;-85
2021/10/27 13:48:59;;;;;;;3.83;1.60;;;15.50;99.90;;;;;;12304722;28;20121;-84
2021/10/27 14:08:11;;;;;;;7.82;2.20;;;15.20;99.90;;;;;;12303336;28;20125;-85
2021/10/27 14:14:22;;;;;;;3.70;1.90;;;15.10;99.90;;;;;;12301129;28;20082;-86
2021/10/27 14:39:47;;;;;;;6.72;2.00;;;15.10;99.90;;;;;;12302601;28;20121;-86
2021/10/27 15:55:14;;;;;;;5.90;2.22;;;14.50;99.90;;;;;;12348009;28;20604;-85
2021/10/27 16:01:16;;;;;;;7.40;1.80;;;14.40;99.90;;;;;;12388894;28;20104;-85
2021/10/27 16:07:19;;;;;;;6.68;2.35;;;14.30;99.90;;;;;;12350409;28;20117;-84
2021/10/27 16:13:22;;;;;;;5.72;1.92;;;14.20;99.90;;;;;;12334078;28;20046;-85
2021/10/27 16:19:24;;;;;;;6.03;2.40;;;14.10;99.90;;;;;;12297829;28;20539;-86
2021/10/27 16:25:43;;;;;;;8.57;2.58;;;14.00;99.90;;;;;;12326829;28;20062;-85
2021/10/27 16:31:45;;;;;;;4.70;1.93;;;13.90;99.90;;;;;;12301285;28;20053;-87
2021/10/27 16:37:47;;;;;;;4.97;2.15;;;13.90;99.90;;;;;;12301861;28;20047;-84
2021/10/27 16:43:49;;;;;;;6.22;1.92;;;13.80;99.90;;;;;;12336840;28;20120;-86
2021/10/27 16:49:51;;;;;;;5.75;1.88;;;13.70;99.90;;;;;;12300658;28;20314;-85
2021/10/27 16:55:54;;;;;;;6.78;2.00;;;13.70;99.90;;;;;;12332740;28;20050;-86
2021/10/27 17:01:56;;;;;;;5.32;2.10;;;13.60;99.90;;;;;;12337344;28;20046;-87
2021/10/27 17:08:01;;;;;;;10.77;2.40;;;13.60;99.90;;;;;;12308556;28;20490;-86
2021/10/27 17:14:02;;;;;;;9.30;2.20;;;13.50;99.90;;;;;;12311608;28;20050;-85
2021/10/27 17:20:05;;;;;;;7.68;2.40;;;13.40;99.90;;;;;;12336382;28;20112;-86
2021/10/27 17:26:08;;;;;;;5.65;2.70;;;13.40;99.90;;;;;;12317161;28;20889;-86
2021/10/27 17:32:11;;;;;;;5.03;2.60;;;13.40;99.90;;;;;;12311499;28;20046;-87
2021/10/27 17:38:13;;;;;;;5.05;2.80;;;13.40;99.90;;;;;;12339867;28;20079;-87
2021/10/27 17:44:16;;;;;;;4.22;2.40;;;13.30;99.90;;;;;;12308809;28;20054;-86
2021/10/27 17:50:25;;;;;;;8.77;3.08;;;13.30;99.90;;;;;;12322120;28;20051;-85
2021/10/27 18:02:47;;;;;;;6.13;2.83;;;13.10;99.90;;;;;;12308692;28;20113;-85
2021/10/27 18:08:50;;;;;;;4.70;2.45;;;13.00;99.90;;;;;;12309436;28;20065;-87
2021/10/27 18:14:54;;;;;;;9.50;2.60;;;13.00;99.90;;;;;;12309991;28;20097;-85
2021/10/27 18:20:57;;;;;;;;;;;13.00;99.90;;;;;;12320919;28;20067;-85
2021/10/27 18:40:08;;;;;;;4.45;2.10;;;12.80;99.90;;;;;;12305625;28;20059;-85
2021/10/27 18:46:04;;;;;;;6.18;1.80;;;12.80;99.90;;;;;;12300531;28;20054;-85
2021/10/27 18:52:15;;;;;;;10.15;2.30;;;12.80;99.90;;;;;;12307803;28;20407;-86
2021/10/27 18:58:33;;;;;;;5.35;1.77;;;12.80;99.90;;;;;;12306133;28;21032;-87
2021/10/27 19:11:05;;;;;;;6.25;2.90;;;12.70;99.90;;;;;;12305208;28;20050;-86
2021/10/27 19:17:12;;;;;;;7.07;2.33;;;12.60;99.90;;;;;;12300923;28;20222;-84
2021/10/27 19:23:14;;;;;;;6.05;2.60;;;12.60;99.90;;;;;;12303054;28;20110;-87
2021/10/27 19:29:20;;;;;;;6.82;2.67;;;12.60;99.90;;;;;;12306725;28;20109;-84
2021/10/27 20:13:31;;;;;;;6.57;2.47;;;12.30;99.90;;;;;;12311823;28;20465;-86
2021/10/27 20:26:38;;;;;;;7.10;2.77;;;12.20;99.90;;;;;;12304005;28;20046;-87
2021/10/27 21:17:14;;;;;;;6.30;2.75;;;11.90;99.90;;;;;;12362988;28;20141;-87
2021/10/27 21:23:17;;;;;;;8.02;2.40;;;11.80;99.90;;;;;;12390676;28;20965;-85
2021/10/27 21:29:24;;;;;;;6.38;2.60;;;11.80;99.90;;;;;;12359012;28;20115;-86
2021/10/27 21:48:07;;;;;;;8.88;2.40;;;11.70;99.90;;;;;;12356995;28;20062;-86
2021/10/27 21:54:09;;;;;;;7.05;2.63;;;11.70;99.90;;;;;;12388971;28;20165;-85
2021/10/27 22:00:12;;;;;;;4.80;2.35;;;11.60;99.90;;;;;;12391710;28;20050;-85
2021/10/27 22:06:14;;;;;;;4.80;2.50;;;11.60;99.90;;;;;;12357627;28;20050;-85
2021/10/27 22:12:16;;;;;;;6.25;2.60;;;11.60;99.90;;;;;;12367805;28;20141;-85
2021/10/27 22:18:18;;;;;;;7.13;2.42;;;11.50;99.90;;;;;;12354551;28;20104;-85
2021/10/27 22:24:24;;;;;;;4.88;2.60;;;11.40;99.90;;;;;;12385481;28;20133;-85
2021/10/27 22:30:26;;;;;;;6.93;2.70;;;11.40;99.90;;;;;;12355391;28;20279;-86
2021/10/27 22:36:28;;;;;;;5.43;2.60;;;11.40;99.90;;;;;;12385669;28;20109;-86
2021/10/27 22:42:31;;;;;;;6.82;2.63;;;11.30;99.90;;;;;;12355040;28;20133;-87
2021/10/27 22:48:34;;;;;;;7.47;2.60;;;11.30;99.90;;;;;;12355571;28;20069;-86
2021/10/27 22:54:36;;;;;;;8.68;2.80;;;11.30;99.90;;;;;;12357729;28;20045;-87
2021/10/27 23:00:45;;;;;;;7.10;2.78;;;11.30;99.90;;;;;;12352912;28;20050;-86
2021/10/27 23:06:51;;;;;;;6.20;2.50;;;11.20;99.90;;;;;;12355830;28;20058;-85
2021/10/27 23:44:39;;;;;;;5.85;3.10;;;10.90;99.90;;;;;;12357970;28;20054;-85
2021/10/27 23:50:42;;;;;;;11.15;3.40;;;11.00;99.90;;;;;;12401005;28;20056;-85
2021/10/27 23:57:07;;;;;;;4.78;2.75;;;11.00;99.90;;;;;;12376399;28;20046;-86
